Data for 03/29/2008

Time Sea-Level Adjusted Pressure Absolute Pressure Temperature Relative Humidity Dew Point   
(mb) (inHg) (mb) (inHg) (C) (F) (%) (C) (F)
00:05 1002 29.59 831 24.54 0.2 32.3 63 -6 21.3
00:10 1002 29.59 831 24.54 0 32.1 65 -5.8 21.6
00:15 1002 29.59 831 24.54 -0.1 31.8 68 -5.3 22.4
00:20 1001 29.56 831 24.54 -0.4 31.3 70 -5.2 22.7
00:25 1001 29.56 831 24.54 -0.5 31.2 71 -5.1 22.8
00:30 1001 29.56 831 24.54 -0.5 31.1 71 -5.1 22.8
00:35 1001 29.56 831 24.54 -0.4 31.3 70 -5.2 22.7
00:40 1002 29.59 831 24.54 -0.4 31.3 72 -4.8 23.4
00:45 1002 29.59 831 24.54 -0.6 30.9 74 -4.8 23.4
00:50 1002 29.59 831 24.54 -0.7 30.7 74 -4.8 23.4
00:55 1001 29.56 831 24.54 -0.8 30.6 76 -4.5 23.9
01:00 1001 29.56 830 24.51 -0.9 30.5 75 -4.7 23.6
01:05 1001 29.56 830 24.51 -0.7 30.7 75 -4.6 23.7
01:10 1001 29.56 830 24.51 -0.6 31 75 -4.4 24
01:15 1001 29.56 830 24.51 -0.4 31.2 75 -4.3 24.2
01:20 1001 29.56 830 24.51 -0.5 31.1 76 -4.3 24.3
01:25 1001 29.56 830 24.51 -0.6 30.8 77 -4.2 24.4
01:30 1001 29.56 830 24.51 -0.7 30.8 77 -4.2 24.5
01:35 1001 29.56 830 24.51 -0.6 30.9 77 -4.1 24.6
01:40 1001 29.56 830 24.51 -0.6 31 77 -4.1 24.7
01:45 1001 29.56 830 24.51 -0.6 31 77 -4.1 24.6
01:50 1001 29.56 831 24.54 -0.5 31 77 -4 24.7
01:55 1001 29.56 831 24.54 -0.4 31.2 82 -3.1 26.4
02:00 1002 29.59 831 24.54 -0.8 30.5 86 -2.8 26.9
02:05 1002 29.59 831 24.54 -1.1 29.9 89 -2.8 27
02:10 1002 29.59 831 24.54 -1.3 29.7 90 -2.7 27.2
02:15 1002 29.59 831 24.54 -1.4 29.5 92 -2.6 27.4
02:20 1002 29.59 831 24.54 -1.5 29.4 93 -2.5 27.5
02:25 1002 29.59 831 24.54 -1.5 29.2 94 -2.4 27.6
02:30 1002 29.59 831 24.54 -1.7 29 95 -2.4 27.6
02:35 1002 29.59 831 24.54 -1.7 28.9 95 -2.4 27.7
02:40 1002 29.59 831 24.54 -1.8 28.8 96 -2.3 27.8
02:45 1002 29.59 831 24.54 -1.8 28.8 96 -2.3 27.9
02:50 1002 29.59 831 24.54 -1.7 28.9 97 -2.1 28.1
02:55 1002 29.59 831 24.54 -1.6 29.2 97 -2 28.5
03:00 1002 29.59 831 24.54 -1.6 29.2 98 -1.9 28.6
03:05 1002 29.59 832 24.57 -1.5 29.3 98 -1.8 28.8
03:10 1002 29.59 832 24.57 -1.6 29.2 98 -1.9 28.7
03:15 1002 29.59 832 24.57 -1.7 29 98 -1.9 28.6
03:20 1002 29.59 832 24.57 -1.8 28.9 99 -2 28.5
03:25 1002 29.59 831 24.54 -1.9 28.6 99 -2.1 28.3
03:30 1002 29.59 831 24.54 -1.8 28.8 99 -1.9 28.5
03:35 1002 29.59 831 24.54 -2 28.3 99 -2.2 28.1
03:40 1002 29.59 832 24.57 -2.1 28.2 100 -2.2 28.1
03:45 1002 29.59 832 24.57 -2 28.5 100 -2 28.4
03:50 1003 29.62 832 24.57 -1.9 28.5 100 -1.9 28.5
03:55 1003 29.62 832 24.57 -1.8 28.7 100 -1.8 28.7
04:00 1003 29.62 832 24.57 -1.9 28.6 100 -1.9 28.6
04:05 1003 29.62 832 24.57 -2 28.4 164 4.9 40.8
04:10 1003 29.62 832 24.57 -2 28.4 164 4.9 40.8
04:15 1003 29.62 832 24.57 -2.1 28.3 164 4.8 40.7
04:20 1003 29.62 832 24.57 -2.1 28.2 164 4.8 40.6
04:25 1003 29.62 832 24.57 -2.1 28.2 164 4.8 40.6
04:30 1003 29.62 832 24.57 -1.9 28.6 164 5 41
04:35 1003 29.62 832 24.57 -1.9 28.6 164 5 41
04:40 1003 29.62 832 24.57 -1.9 28.5 164 5 41
04:45 1003 29.62 832 24.57 -1.9 28.6 164 5 41
04:50 1003 29.62 832 24.57 -1.9 28.7 164 5.1 41.1
04:55 1003 29.62 832 24.57 -2 28.5 164 4.9 40.9
05:00 1003 29.62 832 24.57 -2 28.3 164 4.8 40.7
05:05 1003 29.62 832 24.57 -1.3 29.6 164 5.6 42.1
05:10 1003 29.62 832 24.57 -0.6 30.8 164 6.3 43.4
05:15 1003 29.62 832 24.57 -0.7 30.8 164 6.3 43.4
05:20 1003 29.62 832 24.57 -0.8 30.6 164 6.2 43.1
05:25 1003 29.62 832 24.57 -1 30.1 75 -4.9 23.2
05:30 1003 29.62 832 24.57 -1 30.2 75 -4.9 23.2
05:35 1003 29.62 832 24.57 -1 30.2 73 -5.3 22.4
05:40 1003 29.62 832 24.57 -1 30.1 65 -6.8 19.8
05:45 1003 29.62 832 24.57 -1.3 29.6 65 -7 19.4
05:50 1003 29.62 833 24.6 -1.5 29.3 65 -7.3 18.8
05:55 1003 29.62 833 24.6 -1.5 29.2 62 -8 17.7
06:00 1003 29.62 833 24.6 -1.5 29.3 60 -8.3 17.1
06:05 1004 29.65 833 24.6 -1.5 29.4 58 -8.7 16.3
06:10 1004 29.65 833 24.6 -1.4 29.5 57 -8.9 15.9
06:15 1004 29.65 833 24.6 -1.4 29.5 56 -9.1 15.6
06:20 1004 29.65 833 24.6 -1.5 29.3 64 -7.5 18.4
06:25 1005 29.68 834 24.63 -2.1 28.3 72 -6.5 20.2
06:30 1005 29.68 834 24.63 -2.5 27.6 78 -5.8 21.5
06:35 1005 29.68 834 24.63 -3.1 26.5 82 -5.7 21.7
06:40 1005 29.68 834 24.63 -3.5 25.6 86 -5.5 22.1
06:45 1005 29.68 834 24.63 -3.7 25.3 89 -5.3 22.4
06:50 1005 29.68 834 24.63 -3.9 25.1 90 -5.3 22.5
06:55 1005 29.68 835 24.66 -3.9 25 91 -5.2 22.6
07:00 1006 29.71 835 24.66 -3.9 24.9 91 -5.2 22.7
07:05 1006 29.71 835 24.66 -3.9 24.9 91 -5.2 22.7
07:10 1006 29.71 835 24.66 -3.9 24.9 91 -5.2 22.6
07:15 1006 29.71 835 24.66 -4 24.8 90 -5.3 22.4
07:20 1006 29.71 835 24.66 -4 24.9 90 -5.4 22.3
07:25 1006 29.71 835 24.66 -4 24.8 89 -5.6 21.9
07:30 1006 29.71 836 24.69 -4 24.9 88 -5.6 21.9
07:35 1006 29.71 836 24.69 -4 24.8 87 -5.9 21.3
07:40 1006 29.71 836 24.69 -4.3 24.4 83 -6.7 20
07:45 1007 29.74 836 24.69 -4.5 24 80 -7.3 18.8
07:50 1007 29.74 836 24.69 -4.5 23.9 79 -7.7 18.2
07:55 1007 29.74 836 24.69 -4.5 24 77 -8 17.7
08:00 1007 29.74 836 24.69 -4.5 23.9 75 -8.2 17.2
08:05 1007 29.74 836 24.69 -4.6 23.7 74 -8.5 16.6
08:10 1007 29.74 836 24.69 -4.7 23.5 73 -8.8 16.1
08:15 1007 29.74 836 24.69 -4.7 23.6 70 -9.3 15.3
08:20 1007 29.74 837 24.72 -4.6 23.7 67 -9.8 14.4
08:25 1007 29.74 837 24.72 -4.8 23.4 63 -10.7 12.8
08:30 1007 29.74 837 24.72 -4.1 24.6 59 -11.1 12.1
08:35 1007 29.74 837 24.72 -3.8 25.2 56 -11.4 11.6
08:40 1008 29.77 837 24.72 -3.9 25 57 -11.3 11.6
08:45 1008 29.77 837 24.72 -4 24.8 57 -11.3 11.6
08:50 1008 29.77 837 24.72 -4 24.8 56 -11.5 11.3
08:55 1008 29.77 837 24.72 -3.6 25.6 54 -11.5 11.3
09:00 1008 29.77 837 24.72 -3.2 26.3 51 -11.9 10.6
09:05 1008 29.77 837 24.72 -3.3 26 47 -13.1 8.4
09:10 1008 29.77 837 24.72 -3.5 25.6 47 -13.4 7.9
09:15 1008 29.77 837 24.72 -3.6 25.6 48 -13.2 8.3
09:20 1008 29.77 837 24.72 -3.5 25.8 47 -13.4 8
09:25 1008 29.77 837 24.72 -3.5 25.8 47 -13.1 8.4
09:30 1008 29.77 837 24.72 -3.7 25.4 48 -13.2 8.3
09:35 1008 29.77 837 24.72 -3.5 25.6 47 -13.2 8.2
09:40 1008 29.77 837 24.72 -3.3 26.1 47 -13.1 8.4
09:45 1008 29.77 837 24.72 -2.7 27.2 46 -12.9 8.8
09:50 1008 29.77 838 24.75 -2.2 28 46 -12.4 9.6
09:55 1008 29.77 838 24.75 -1.9 28.6 45 -12.3 9.9
10:00 1008 29.77 838 24.75 -2.1 28.2 46 -12.3 9.8
10:05 1008 29.77 838 24.75 -1.9 28.5 45 -12.4 9.7
10:10 1009 29.8 838 24.75 -1.9 28.7 45 -12.2 10
10:15 1009 29.8 838 24.75 -1.6 29.1 45 -12.1 10.2
10:20 1009 29.8 838 24.75 -1.8 28.8 40 -13.6 7.6
10:25 1009 29.8 838 24.75 -2.3 27.8 40 -14.1 6.6
10:30 1009 29.8 838 24.75 -2.2 28 41 -13.7 7.3
10:35 1009 29.8 838 24.75 -1.6 29.1 39 -13.7 7.3
10:40 1009 29.8 838 24.75 -1.3 29.6 39 -13.5 7.8
10:45 1009 29.8 838 24.75 -1.5 29.3 39 -13.7 7.3
10:50 1009 29.8 838 24.75 -1.6 29.1 36 -14.7 5.5
10:55 1009 29.8 838 24.75 -2.2 28.1 35 -15.6 4
11:00 1009 29.8 838 24.75 -2.4 27.8 36 -15.4 4.4
11:05 1009 29.8 838 24.75 -2.2 28.1 36 -15.5 4.1
11:10 1009 29.8 838 24.75 -1.9 28.5 35 -15.3 4.4
11:15 1009 29.8 838 24.75 -1.6 29.2 37 -14.5 5.9
11:20 1009 29.8 838 24.75 -1.4 29.5 35 -14.9 5.1
11:25 1009 29.8 838 24.75 -1.5 29.2 37 -14.4 6
11:30 1009 29.8 838 24.75 -1.3 29.6 36 -14.7 5.5
11:35 1009 29.8 838 24.75 -1.7 28.9 38 -14.3 6.2
11:40 1009 29.8 839 24.78 -1.1 30 39 -13.5 7.7
11:45 1009 29.8 839 24.78 -1.7 28.9 42 -13.1 8.5
11:50 1009 29.8 839 24.78 -2 28.5 42 -13.4 7.9
11:55 1009 29.8 839 24.78 -2.3 27.8 43 -13.5 7.8
12:00 1010 29.83 839 24.78 -2.3 27.8 41 -14 6.8
12:05 1010 29.83 839 24.78 -2.4 27.6 41 -14.1 6.6
12:10 1010 29.83 839 24.78 -2.5 27.4 39 -14.6 5.8
12:15 1010 29.83 839 24.78 -2.5 27.4 40 -14.3 6.3
12:20 1010 29.83 839 24.78 -2.5 27.5 41 -14.1 6.6
12:25 1010 29.83 839 24.78 -2.3 27.9 41 -13.8 7.2
12:30 1010 29.83 839 24.78 -1.8 28.8 41 -13.4 8
12:35 1010 29.83 839 24.78 -1.8 28.7 36 -15 5
12:40 1010 29.83 839 24.78 -1.9 28.7 37 -14.7 5.5
12:45 1010 29.83 839 24.78 -1.8 28.8 37 -14.7 5.5
12:50 1010 29.83 839 24.78 -1.8 28.8 37 -14.6 5.6
12:55 1010 29.83 839 24.78 -1.9 28.5 38 -14.6 5.7
13:00 1010 29.83 839 24.78 -1.7 29 38 -14.4 6.1
13:05 1010 29.83 840 24.81 -1.6 29.2 37 -14.5 5.9
13:10 1010 29.83 840 24.81 -1.5 29.4 37 -14.5 6
13:15 1011 29.85 840 24.81 -1.4 29.5 36 -14.5 5.9
13:20 1011 29.85 840 24.81 -1.3 29.7 36 -14.5 6
13:25 1011 29.85 840 24.81 -1.3 29.6 35 -14.8 5.4
13:30 1011 29.85 840 24.81 -1.5 29.4 37 -14.4 6.1
13:35 1011 29.85 840 24.81 -1.5 29.3 35 -14.9 5.1
13:40 1011 29.85 840 24.81 -1.5 29.3 37 -14.4 6.1
13:45 1011 29.85 840 24.81 -1.4 29.5 37 -14.1 6.6
13:50 1011 29.85 840 24.81 -1.4 29.5 39 -13.8 7.2
13:55 1011 29.85 840 24.81 -1.4 29.4 36 -14.7 5.6
14:00 1011 29.85 840 24.81 -1.4 29.5 38 -14 6.8
14:05 1011 29.85 841 24.83 -1.4 29.5 38 -14.1 6.7
14:10 1011 29.85 841 24.83 -1.3 29.6 38 -13.9 7
14:15 1012 29.88 841 24.83 -1.1 30 37 -14 6.9
14:20 1012 29.88 841 24.83 -1.5 29.3 36 -14.6 5.7
14:25 1012 29.88 841 24.83 -1.5 29.3 38 -14.2 6.4
14:30 1012 29.88 841 24.83 -0.7 30.7 37 -13.8 7.2
14:35 1012 29.88 841 24.83 -0.7 30.8 37 -13.7 7.4
14:40 1012 29.88 841 24.83 -0.9 30.4 38 -13.5 7.8
14:45 1012 29.88 841 24.83 -1.2 29.9 39 -13.4 7.8
14:50 1012 29.88 841 24.83 -0.9 30.4 39 -13.1 8.5
14:55 1012 29.88 841 24.83 -0.9 30.3 36 -14.2 6.4
15:00 1012 29.88 841 24.83 -1.5 29.4 39 -13.8 7.2
15:05 1012 29.88 841 24.83 -1.2 29.9 39 -13.5 7.7
15:10 1012 29.88 841 24.83 -0.8 30.6 38 -13.5 7.6
15:15 1012 29.88 842 24.86 -0.6 30.9 36 -13.9 6.9
15:20 1012 29.88 842 24.86 -0.6 30.9 37 -13.6 7.6
15:25 1012 29.88 842 24.86 -1 30.2 38 -13.5 7.8
15:30 1013 29.91 842 24.86 -0.9 30.4 38 -13.7 7.4
15:35 1013 29.91 842 24.86 -1.2 29.9 40 -13 8.6
15:40 1013 29.91 842 24.86 -0.9 30.4 39 -13.3 8
15:45 1013 29.91 842 24.86 -0.8 30.5 37 -13.9 7
15:50 1013 29.91 842 24.86 -0.8 30.5 39 -13.1 8.4
15:55 1013 29.91 842 24.86 -0.9 30.3 42 -12.4 9.7
16:00 1013 29.91 842 24.86 -1 30.3 43 -12 10.3
16:05 1013 29.91 842 24.86 -0.9 30.3 44 -11.6 11.1
16:10 1013 29.91 842 24.86 -1.1 30 43 -12.1 10.1
16:15 1013 29.91 843 24.89 -1.3 29.6 45 -11.7 10.9
16:20 1013 29.91 843 24.89 -1.2 29.8 47 -11.3 11.7
16:25 1014 29.94 843 24.89 -1.3 29.6 47 -11.3 11.7
16:30 1014 29.94 843 24.89 -1.1 30 45 -11.6 11.1
16:35 1014 29.94 843 24.89 -0.9 30.4 42 -12.2 10
16:40 1014 29.94 843 24.89 -1 30.2 44 -11.6 11
16:45 1014 29.94 843 24.89 -1.1 30 45 -11.7 10.9
16:50 1014 29.94 843 24.89 -1 30.3 44 -11.8 10.7
16:55 1014 29.94 843 24.89 -1.1 30.1 44 -11.9 10.6
17:00 1014 29.94 843 24.89 -0.6 30.9 43 -11.8 10.8
17:05 1014 29.94 843 24.89 0.1 32.1 41 -11.5 11.2
17:10 1014 29.94 843 24.89 0.6 33.1 40 -11.6 11.1
17:15 1014 29.94 844 24.92 0.1 32.2 43 -11.2 11.9
17:20 1014 29.94 844 24.92 -0.8 30.6 47 -10.9 12.4
17:25 1015 29.97 844 24.92 -1.3 29.7 47 -11.3 11.7
17:30 1015 29.97 844 24.92 -1.4 29.5 47 -11.2 11.9
17:35 1015 29.97 844 24.92 -1.5 29.3 49 -10.9 12.4
17:40 1015 29.97 844 24.92 -1.2 29.9 48 -10.9 12.3
17:45 1015 29.97 844 24.92 -1 30.2 48 -10.7 12.7
17:50 1015 29.97 844 24.92 -1.4 29.5 47 -11.4 11.4
17:55 1015 29.97 844 24.92 -1.4 29.4 46 -11.5 11.3
18:00 1015 29.97 844 24.92 -1.2 29.9 45 -11.8 10.8
18:05 1015 29.97 844 24.92 -1 30.2 43 -12.1 10.3
18:10 1015 29.97 844 24.92 -1.1 30.1 43 -12.2 10.1
18:15 1015 29.97 844 24.92 -1.3 29.7 47 -11.3 11.7
18:20 1015 29.97 844 24.92 -1.9 28.7 51 -10.8 12.6
18:25 1015 29.97 844 24.92 -2.1 28.1 53 -10.5 13.2
18:30 1015 29.97 845 24.95 -2.2 28 58 -9.5 14.9
18:35 1015 29.97 845 24.95 -2.7 27.1 60 -9.4 15.1
18:40 1016 30 845 24.95 -2.6 27.2 61 -9.2 15.4
18:45 1016 30 845 24.95 -2.8 26.9 62 -9.1 15.6
18:50 1016 30 845 24.95 -3.1 26.4 65 -8.9 16.1
18:55 1016 30 845 24.95 -3.1 26.4 66 -8.6 16.6
19:00 1016 30 845 24.95 -3 26.5 65 -8.6 16.5
19:05 1016 30 845 24.95 -3.4 26 69 -8.3 17
19:10 1016 30 845 24.95 -3.6 25.5 72 -8 17.6
19:15 1016 30 845 24.95 -3.7 25.3 74 -7.7 18.2
19:20 1016 30 845 24.95 -3.8 25.2 75 -7.6 18.3
19:25 1016 30 845 24.95 -3.9 25.1 74 -7.9 17.9
19:30 1016 30 845 24.95 -3.9 24.9 74 -8 17.6
19:35 1016 30 846 24.98 -4 24.8 74 -8 17.7
19:40 1016 30 846 24.98 -4.2 24.5 76 -7.9 17.9
19:45 1016 30 846 24.98 -4.3 24.3 78 -7.6 18.3
19:50 1016 30 846 24.98 -4.3 24.2 78 -7.6 18.3
19:55 1016 30 846 24.98 -4.3 24.3 77 -7.7 18.1
20:00 1016 30 846 24.98 -4.2 24.4 77 -7.7 18.2
20:05 1016 30 846 24.98 -4.3 24.3 78 -7.6 18.3
20:10 1016 30 846 24.98 -4.2 24.4 78 -7.5 18.5
20:15 1016 30 846 24.98 -4.3 24.3 80 -7.3 18.9
20:20 1016 30 846 24.98 -4.3 24.2 81 -7.1 19.2
20:25 1016 30 846 24.98 -4.4 24.1 82 -7 19.5
20:30 1016 30 846 24.98 -4.4 24 83 -6.9 19.5
20:35 1016 30 846 24.98 -4.7 23.6 83 -7.1 19.3
20:40 1016 30 846 24.98 -4.5 23.9 84 -6.9 19.6
20:45 1017 30.03 846 24.98 -4.3 24.2 83 -6.9 19.6
20:50 1017 30.03 846 24.98 -4.4 24.1 82 -7 19.4
20:55 1017 30.03 846 24.98 -4.4 24.1 81 -7.1 19.2
21:00 1017 30.03 846 24.98 -4.5 24 81 -7.3 18.9
21:05 1017 30.03 846 24.98 -4.6 23.7 81 -7.4 18.7
21:10 1017 30.03 846 24.98 -4.6 23.8 80 -7.4 18.6
21:15 1017 30.03 846 24.98 -4.5 23.8 80 -7.5 18.6
21:20 1017 30.03 846 24.98 -4.5 23.9 79 -7.6 18.3
21:25 1017 30.03 846 24.98 -4.6 23.7 79 -7.7 18.1
21:30 1017 30.03 846 24.98 -4.7 23.6 79 -7.7 18.1
21:35 1017 30.03 846 24.98 -4.8 23.4 78 -8 17.6
21:40 1017 30.03 846 24.98 -5 23 78 -8.3 17.1
21:45 1017 30.03 846 24.98 -5.1 22.8 78 -8.4 16.9
21:50 1017 30.03 846 24.98 -5.2 22.7 77 -8.5 16.6
21:55 1017 30.03 846 24.98 -5.2 22.6 77 -8.6 16.6
22:00 1017 30.03 846 24.98 -5.2 22.6 78 -8.5 16.8
22:05 1017 30.03 846 24.98 -5.4 22.3 79 -8.5 16.7
22:10 1017 30.03 846 24.98 -5.5 22 79 -8.7 16.4
22:15 1017 30.03 846 24.98 -5.7 21.8 79 -8.8 16.1
22:20 1017 30.03 846 24.98 -5.7 21.7 78 -8.9 15.9
22:25 1017 30.03 846 24.98 -5.9 21.4 78 -9.1 15.7
22:30 1017 30.03 846 24.98 -6 21.2 78 -9.1 15.5
22:35 1017 30.03 846 24.98 -6 21.1 78 -9.3 15.3
22:40 1017 30.03 846 24.98 -6.2 20.9 78 -9.5 14.9
22:45 1017 30.03 846 24.98 -6.4 20.4 78 -9.7 14.5
22:50 1017 30.03 846 24.98 -6.6 20.2 78 -9.8 14.3
22:55 1017 30.03 846 24.98 -6.6 20 77 -10 14
23:00 1017 30.03 846 24.98 -6.9 19.6 78 -10.1 13.7
23:05 1017 30.03 846 24.98 -7.1 19.3 78 -10.3 13.5
23:10 1017 30.03 846 24.98 -7.2 19.1 78 -10.3 13.4
23:15 1017 30.03 846 24.98 -7.4 18.8 78 -10.5 13.1
23:20 1017 30.03 846 24.98 -7.6 18.3 79 -10.6 12.8
23:25 1017 30.03 846 24.98 -7.8 17.9 79 -10.9 12.5
23:30 1017 30.03 846 24.98 -8 17.7 79 -11 12.3
23:35 1017 30.03 846 24.98 -8 17.7 79 -10.9 12.3
23:40 1017 30.03 846 24.98 -7.8 17.9 80 -10.8 12.6
23:45 1017 30.03 846 24.98 -7.9 17.9 79 -10.8 12.5
23:50 1017 30.03 846 24.98 -8.1 17.5 80 -10.9 12.4
23:55 1017 30.03 846 24.98 -8 17.6 80 -10.9 12.4
24:00 1017 30.03 846 24.98 -8 17.5 80 -10.9 12.3